createdAt,value
2018-12-02T00:00:05.567Z,0
2018-12-02T00:01:07.603Z,0
2018-12-02T00:02:09.636Z,0
2018-12-02T00:03:11.662Z,0
2018-12-02T00:04:14.091Z,0
2018-12-02T00:05:16.159Z,0
2018-12-02T00:06:18.206Z,0
2018-12-02T00:07:20.235Z,0
2018-12-02T00:08:22.277Z,0
2018-12-02T00:09:24.304Z,0
2018-12-02T00:10:26.338Z,0
2018-12-02T00:11:28.370Z,0
2018-12-02T00:12:30.389Z,0
2018-12-02T00:13:32.437Z,0
2018-12-02T00:14:34.474Z,0
2018-12-02T00:15:36.494Z,0
2018-12-02T00:16:38.563Z,0
2018-12-02T00:17:40.657Z,0
2018-12-02T00:18:42.692Z,0
2018-12-02T00:19:44.736Z,0
2018-12-02T00:20:46.768Z,0
2018-12-02T00:21:48.798Z,0
2018-12-02T00:22:51.221Z,0
2018-12-02T00:23:53.258Z,0
2018-12-02T00:24:55.332Z,0
2018-12-02T00:25:57.367Z,0
2018-12-02T00:26:59.397Z,0
2018-12-02T00:28:01.421Z,0
2018-12-02T00:29:03.470Z,0
2018-12-02T00:30:05.781Z,0
2018-12-02T00:31:08.105Z,0
2018-12-02T00:32:10.134Z,0
2018-12-02T00:33:12.174Z,0
2018-12-02T00:34:14.214Z,0
2018-12-02T00:35:16.271Z,0
2018-12-02T00:36:18.642Z,0
2018-12-02T00:37:20.681Z,0
2018-12-02T00:38:22.701Z,0
2018-12-02T00:39:24.732Z,0
2018-12-02T00:40:26.778Z,0
2018-12-02T00:41:28.824Z,0
2018-12-02T00:42:30.853Z,0
2018-12-02T00:43:32.883Z,0
2018-12-02T00:44:34.931Z,0
2018-12-02T00:45:36.959Z,0
2018-12-02T00:46:39.299Z,0
2018-12-02T00:47:41.334Z,0
2018-12-02T00:48:43.635Z,0
2018-12-02T00:49:45.673Z,0
2018-12-02T00:50:47.708Z,0
2018-12-02T00:51:49.739Z,0
2018-12-02T00:52:51.782Z,0
2018-12-02T00:53:53.818Z,0
2018-12-02T00:54:55.849Z,0
2018-12-02T00:55:57.883Z,0
2018-12-02T00:56:59.928Z,0
2018-12-02T00:58:02.215Z,0
2018-12-02T00:59:04.262Z,0
2018-12-02T01:00:06.300Z,0
2018-12-02T01:01:08.341Z,0
2018-12-02T01:02:10.772Z,0
2018-12-02T01:03:12.798Z,0
2018-12-02T01:04:14.833Z,0
2018-12-02T01:05:17.265Z,0
2018-12-02T01:06:19.317Z,0
2018-12-02T01:07:21.360Z,0
2018-12-02T01:08:23.394Z,0
2018-12-02T01:09:25.450Z,0
2018-12-02T01:10:27.467Z,0
2018-12-02T01:11:29.809Z,0
2018-12-02T01:12:31.840Z,0
2018-12-02T01:13:33.876Z,0
2018-12-02T01:14:35.891Z,0
2018-12-02T01:15:37.916Z,0
2018-12-02T01:16:40.247Z,0
2018-12-02T01:17:42.270Z,0
2018-12-02T01:18:44.600Z,0
2018-12-02T01:19:46.616Z,0
2018-12-02T01:20:48.650Z,0
2018-12-02T01:21:50.684Z,0
2018-12-02T01:22:52.712Z,0
2018-12-02T01:23:54.746Z,0
2018-12-02T01:24:56.786Z,0
2018-12-02T01:25:58.808Z,0
2018-12-02T01:27:01.125Z,0
2018-12-02T01:28:03.174Z,0
2018-12-02T01:29:05.207Z,0
2018-12-02T01:30:07.241Z,0
2018-12-02T01:31:09.283Z,0
2018-12-02T01:32:11.305Z,0
2018-12-02T01:33:13.617Z,0
2018-12-02T01:34:15.939Z,0
2018-12-02T01:35:18.230Z,0
2018-12-02T01:36:20.306Z,0
2018-12-02T01:37:22.608Z,0
2018-12-02T01:38:24.644Z,0
2018-12-02T01:39:26.663Z,0
2018-12-02T01:40:28.713Z,0
2018-12-02T01:41:30.737Z,0
2018-12-02T01:42:32.764Z,0
2018-12-02T01:43:34.807Z,0
2018-12-02T01:44:36.827Z,0
2018-12-02T01:45:38.867Z,0
2018-12-02T01:46:40.897Z,0
2018-12-02T01:47:43.722Z,0
2018-12-02T01:48:45.746Z,0
2018-12-02T01:49:48.075Z,0
2018-12-02T01:50:50.111Z,0
2018-12-02T01:51:52.429Z,0
2018-12-02T01:52:54.465Z,0
2018-12-02T01:53:56.788Z,0
2018-12-02T01:54:58.829Z,0
2018-12-02T01:56:00.879Z,0
2018-12-02T01:57:02.907Z,0
2018-12-02T01:58:04.937Z,0
2018-12-02T01:59:06.958Z,0
2018-12-02T02:00:08.989Z,0
2018-12-02T02:01:11.072Z,0
2018-12-02T02:02:13.107Z,0
2018-12-02T02:03:15.123Z,0
2018-12-02T02:04:17.161Z,0
2018-12-02T02:05:19.485Z,0
2018-12-02T02:06:21.559Z,0
2018-12-02T02:07:23.602Z,0
2018-12-02T02:08:25.910Z,0
2018-12-02T02:09:27.952Z,0
2018-12-02T02:10:30.275Z,0
2018-12-02T02:11:32.311Z,0
2018-12-02T02:12:34.620Z,0
2018-12-02T02:13:36.645Z,0
2018-12-02T02:14:38.667Z,0
2018-12-02T02:15:40.746Z,0
2018-12-02T02:16:42.805Z,0
2018-12-02T02:17:44.825Z,0
2018-12-02T02:18:47.146Z,0
2018-12-02T02:19:49.168Z,0
2018-12-02T02:20:51.236Z,0
2018-12-02T02:21:53.263Z,0
2018-12-02T02:22:55.300Z,0
2018-12-02T02:23:57.334Z,0
2018-12-02T02:24:59.375Z,0
2018-12-02T02:26:01.418Z,0
2018-12-02T02:27:03.467Z,0
2018-12-02T02:28:05.493Z,0
2018-12-02T02:29:07.539Z,0
2018-12-02T02:30:09.574Z,0
2018-12-02T02:31:11.622Z,0
2018-12-02T02:32:13.642Z,0
2018-12-02T02:33:16.344Z,0
2018-12-02T02:34:18.395Z,0
2018-12-02T02:35:20.431Z,0
2018-12-02T02:36:22.764Z,0
2018-12-02T02:37:24.817Z,0
2018-12-02T02:38:26.840Z,0
2018-12-02T02:39:28.870Z,0
2018-12-02T02:40:30.908Z,0
2018-12-02T02:41:32.937Z,0
2018-12-02T02:42:34.977Z,0
2018-12-02T02:43:37.332Z,0
2018-12-02T02:44:40.323Z,0
2018-12-02T02:45:42.339Z,0
2018-12-02T02:46:44.371Z,0
2018-12-02T02:47:46.395Z,0
2018-12-02T02:48:48.720Z,0
2018-12-02T02:49:50.775Z,0
2018-12-02T02:50:53.104Z,0
2018-12-02T02:51:55.127Z,0
2018-12-02T02:52:57.196Z,0
2018-12-02T02:53:59.529Z,0
2018-12-02T02:55:01.570Z,0
2018-12-02T02:56:03.626Z,0
2018-12-02T02:57:06.053Z,0
2018-12-02T02:58:08.064Z,0
2018-12-02T02:59:10.110Z,0
2018-12-02T03:00:12.152Z,0
2018-12-02T03:01:14.506Z,0
2018-12-02T03:02:16.540Z,0
2018-12-02T03:03:18.858Z,0
2018-12-02T03:04:20.887Z,0
2018-12-02T03:05:23.217Z,0
2018-12-02T03:06:25.253Z,0
2018-12-02T03:07:27.275Z,0
2018-12-02T03:08:29.369Z,0
2018-12-02T03:09:31.390Z,0
2018-12-02T03:10:33.443Z,0
2018-12-02T03:11:35.473Z,0
2018-12-02T03:12:37.503Z,0
2018-12-02T03:13:40.216Z,0
2018-12-02T03:14:42.227Z,0
2018-12-02T03:15:44.272Z,0
2018-12-02T03:16:46.331Z,0
2018-12-02T03:17:48.369Z,0
2018-12-02T03:18:50.714Z,0
2018-12-02T03:19:52.758Z,0
2018-12-02T03:20:55.079Z,0
2018-12-02T03:21:57.098Z,0
2018-12-02T03:22:59.146Z,0
2018-12-02T03:24:01.166Z,0
2018-12-02T03:25:03.212Z,0
2018-12-02T03:26:05.243Z,0
2018-12-02T03:27:07.281Z,0
2018-12-02T03:28:09.313Z,0
2018-12-02T03:29:11.635Z,0
2018-12-02T03:30:13.966Z,0
2018-12-02T03:31:16.575Z,0
2018-12-02T03:32:18.633Z,0
2018-12-02T03:33:20.695Z,0
2018-12-02T03:34:24.133Z,0
2018-12-02T03:35:26.172Z,0
2018-12-02T03:36:28.215Z,0
2018-12-02T03:37:30.245Z,0
2018-12-02T03:38:32.575Z,0
2018-12-02T03:39:34.606Z,0
2018-12-02T03:40:36.632Z,0
2018-12-02T03:41:38.673Z,0
2018-12-02T03:42:40.998Z,0
2018-12-02T03:43:43.024Z,0
2018-12-02T03:44:45.445Z,0
2018-12-02T03:45:47.768Z,0
2018-12-02T03:46:49.793Z,0
2018-12-02T03:47:51.843Z,0
2018-12-02T03:48:53.922Z,0
2018-12-02T03:49:55.956Z,0
2018-12-02T03:50:58.265Z,0
2018-12-02T03:52:00.358Z,0
2018-12-02T03:53:02.397Z,0
2018-12-02T03:54:04.704Z,0
2018-12-02T03:55:06.743Z,0
2018-12-02T03:56:09.139Z,0
2018-12-02T03:57:11.184Z,0
2018-12-02T03:58:13.214Z,0
2018-12-02T03:59:15.257Z,0
2018-12-02T04:00:17.283Z,0
2018-12-02T04:01:19.383Z,0
2018-12-02T04:02:21.691Z,0
2018-12-02T04:03:23.718Z,0
2018-12-02T04:04:25.759Z,0
2018-12-02T04:05:27.783Z,0
2018-12-02T04:06:29.815Z,0
2018-12-02T04:07:31.865Z,0
2018-12-02T04:08:33.913Z,0
2018-12-02T04:09:35.945Z,0
2018-12-02T04:10:37.985Z,0
2018-12-02T04:11:40.012Z,0
2018-12-02T04:12:42.044Z,0
2018-12-02T04:13:44.093Z,0
2018-12-02T04:14:46.413Z,0
2018-12-02T04:15:48.448Z,0
2018-12-02T04:16:50.491Z,0
2018-12-02T04:17:52.518Z,0
2018-12-02T04:18:54.608Z,0
2018-12-02T04:19:56.646Z,0
2018-12-02T04:20:58.659Z,0
2018-12-02T04:22:01.083Z,0
2018-12-02T04:23:03.412Z,0
2018-12-02T04:24:05.450Z,0
2018-12-02T04:25:07.754Z,0
2018-12-02T04:26:10.060Z,0
2018-12-02T04:27:12.472Z,0
2018-12-02T04:28:14.579Z,0
2018-12-02T04:29:16.600Z,0
2018-12-02T04:30:18.657Z,0
2018-12-02T04:31:20.699Z,0
2018-12-02T04:32:22.750Z,0
2018-12-02T04:33:24.777Z,0
2018-12-02T04:34:27.219Z,0
2018-12-02T04:35:29.545Z,0
2018-12-02T04:36:31.588Z,0
2018-12-02T04:37:33.925Z,0
2018-12-02T04:38:36.227Z,0
2018-12-02T04:39:38.542Z,0
2018-12-02T04:40:40.963Z,0
2018-12-02T04:41:43.275Z,0
2018-12-02T04:42:45.312Z,0
2018-12-02T04:43:47.354Z,0
2018-12-02T04:44:49.783Z,0
2018-12-02T04:45:51.821Z,0
2018-12-02T04:46:54.144Z,0
2018-12-02T04:47:56.171Z,0
2018-12-02T04:48:58.197Z,0
2018-12-02T04:50:00.530Z,0
2018-12-02T04:51:02.911Z,0
2018-12-02T04:52:04.938Z,0
2018-12-02T04:53:07.021Z,0
2018-12-02T04:54:09.048Z,0
2018-12-02T04:55:11.509Z,0
2018-12-02T04:56:13.847Z,0
2018-12-02T04:57:15.888Z,0
2018-12-02T04:58:17.919Z,0
2018-12-02T04:59:19.958Z,0
2018-12-02T05:00:22.003Z,0
2018-12-02T05:01:24.313Z,0
2018-12-02T05:02:26.631Z,0
2018-12-02T05:03:28.673Z,0
2018-12-02T05:04:30.710Z,0
2018-12-02T05:05:32.749Z,0
2018-12-02T05:06:34.776Z,0
2018-12-02T05:07:37.132Z,0
2018-12-02T05:08:39.170Z,0
2018-12-02T05:09:41.202Z,0
2018-12-02T05:10:43.254Z,0
2018-12-02T05:11:45.573Z,0
2018-12-02T05:12:47.887Z,0
2018-12-02T05:13:49.919Z,0
2018-12-02T05:14:51.949Z,0
2018-12-02T05:15:54.025Z,0
2018-12-02T05:16:56.054Z,0
2018-12-02T05:17:58.400Z,0
2018-12-02T05:19:00.719Z,0
2018-12-02T05:20:02.765Z,0
2018-12-02T05:21:04.795Z,0
2018-12-02T05:22:06.824Z,0
2018-12-02T05:23:08.869Z,0
2018-12-02T05:24:10.908Z,0
2018-12-02T05:25:17.291Z,0
2018-12-02T05:26:21.125Z,0
2018-12-02T05:27:23.143Z,0
2018-12-02T05:28:25.184Z,0
2018-12-02T05:29:27.230Z,0
2018-12-02T05:30:29.281Z,0
2018-12-02T05:31:31.336Z,0
2018-12-02T05:32:33.369Z,0
2018-12-02T05:33:35.401Z,0
2018-12-02T05:34:37.427Z,0
2018-12-02T05:35:39.471Z,0
2018-12-02T05:36:41.496Z,0
2018-12-02T05:37:43.809Z,0
2018-12-02T05:38:45.838Z,0
2018-12-02T05:39:47.881Z,0
2018-12-02T05:40:49.913Z,0
2018-12-02T05:41:52.233Z,0
2018-12-02T05:42:54.259Z,0
2018-12-02T05:43:56.306Z,0
2018-12-02T05:44:58.330Z,0
2018-12-02T05:46:00.359Z,0
2018-12-02T05:47:02.777Z,0
2018-12-02T05:48:04.811Z,0
2018-12-02T05:49:06.834Z,0
2018-12-02T05:50:09.153Z,0
2018-12-02T05:51:11.180Z,0
2018-12-02T05:52:13.210Z,0
2018-12-02T05:53:15.260Z,0
2018-12-02T05:54:17.289Z,0
2018-12-02T05:55:19.316Z,0
2018-12-02T05:56:21.758Z,0
2018-12-02T05:57:23.779Z,0
2018-12-02T05:58:25.809Z,0
2018-12-02T05:59:27.844Z,0
2018-12-02T06:00:29.905Z,0
2018-12-02T06:01:31.956Z,0
2018-12-02T06:02:39.322Z,0
2018-12-02T06:03:41.499Z,0
2018-12-02T06:04:43.521Z,0
2018-12-02T06:05:45.562Z,0
2018-12-02T06:06:47.589Z,0
2018-12-02T06:07:49.614Z,0
2018-12-02T06:08:51.668Z,0
2018-12-02T06:09:53.686Z,0
2018-12-02T06:10:55.715Z,0
2018-12-02T06:11:57.736Z,0
2018-12-02T06:12:59.774Z,0
2018-12-02T06:14:01.806Z,0
2018-12-02T06:15:03.840Z,0
2018-12-02T06:16:05.871Z,0
2018-12-02T06:17:08.285Z,0
2018-12-02T06:18:10.328Z,0
2018-12-02T06:19:12.367Z,0
2018-12-02T06:20:14.390Z,0
2018-12-02T06:21:16.431Z,0
2018-12-02T06:22:18.774Z,0
2018-12-02T06:23:20.813Z,0
2018-12-02T06:24:22.863Z,0
2018-12-02T06:25:24.898Z,0
2018-12-02T06:26:27.894Z,0
2018-12-02T06:27:29.923Z,0
2018-12-02T06:28:31.960Z,0
2018-12-02T06:29:33.986Z,0
2018-12-02T06:30:36.021Z,0
2018-12-02T06:31:38.437Z,0
2018-12-02T06:32:40.470Z,4
2018-12-02T06:33:42.522Z,0
2018-12-02T06:34:44.546Z,4
2018-12-02T06:35:46.580Z,4
2018-12-02T06:36:48.613Z,4
2018-12-02T06:37:50.681Z,8
2018-12-02T06:38:53.411Z,4
2018-12-02T06:39:55.437Z,8
2018-12-02T06:40:57.472Z,8
2018-12-02T06:41:59.898Z,8
2018-12-02T06:43:02.224Z,8
2018-12-02T06:44:04.269Z,12
2018-12-02T06:45:06.362Z,12
2018-12-02T06:46:08.380Z,16
2018-12-02T06:47:10.454Z,16
2018-12-02T06:48:12.488Z,20
2018-12-02T06:49:14.522Z,16
2018-12-02T06:50:16.566Z,20
2018-12-02T06:51:19.020Z,28
2018-12-02T06:52:21.108Z,28
2018-12-02T06:53:23.443Z,32
2018-12-02T06:54:25.471Z,36
2018-12-02T06:55:27.494Z,40
2018-12-02T06:56:29.523Z,44
2018-12-02T06:57:31.564Z,56
2018-12-02T06:58:33.593Z,64
2018-12-02T06:59:35.613Z,76
2018-12-02T07:00:37.642Z,80
2018-12-02T07:01:39.675Z,84
2018-12-02T07:02:41.695Z,88
2018-12-02T07:03:43.726Z,92
2018-12-02T07:04:46.044Z,96
2018-12-02T07:05:48.068Z,96
2018-12-02T07:06:50.127Z,92
2018-12-02T07:07:52.201Z,92
2018-12-02T07:08:54.237Z,96
2018-12-02T07:09:56.256Z,104
2018-12-02T07:10:58.305Z,112
2018-12-02T07:12:00.327Z,116
2018-12-02T07:13:02.359Z,128
2018-12-02T07:14:04.442Z,124
2018-12-02T07:15:06.455Z,120
2018-12-02T07:16:08.491Z,116
2018-12-02T07:17:10.532Z,124
2018-12-02T07:18:12.564Z,116
2018-12-02T07:19:14.586Z,108
2018-12-02T07:20:16.626Z,116
2018-12-02T07:21:18.653Z,128
2018-12-02T07:22:20.962Z,140
2018-12-02T07:23:23.020Z,164
2018-12-02T07:24:25.046Z,188
2018-12-02T07:25:27.083Z,188
2018-12-02T07:26:29.120Z,184
2018-12-02T07:27:31.153Z,172
2018-12-02T07:28:33.199Z,172
2018-12-02T07:29:35.233Z,168
2018-12-02T07:30:37.262Z,168
2018-12-02T07:31:39.295Z,156
2018-12-02T07:32:41.356Z,160
2018-12-02T07:33:43.388Z,180
2018-12-02T07:34:45.409Z,200
2018-12-02T07:35:47.450Z,212
2018-12-02T07:36:49.484Z,228
2018-12-02T07:37:51.526Z,216
2018-12-02T07:38:53.952Z,264
2018-12-02T07:39:55.971Z,288
2018-12-02T07:40:58.004Z,332
2018-12-02T07:42:00.031Z,316
2018-12-02T07:43:02.074Z,340
2018-12-02T07:44:04.397Z,332
2018-12-02T07:45:06.437Z,328
2018-12-02T07:46:09.034Z,324
2018-12-02T07:47:11.061Z,364
2018-12-02T07:48:13.113Z,412
2018-12-02T07:49:15.417Z,460
2018-12-02T07:50:17.458Z,432
2018-12-02T07:51:19.874Z,508
2018-12-02T07:52:21.926Z,500
2018-12-02T07:53:24.389Z,548
2018-12-02T07:54:26.434Z,600
2018-12-02T07:55:28.464Z,648
2018-12-02T07:56:30.477Z,624
2018-12-02T07:57:32.524Z,664
2018-12-02T07:58:34.555Z,740
2018-12-02T07:59:36.581Z,772
2018-12-02T08:00:38.897Z,952
2018-12-02T08:01:40.947Z,776
2018-12-02T08:02:42.977Z,776
2018-12-02T08:03:45.403Z,792
2018-12-02T08:04:47.435Z,724
2018-12-02T08:05:49.469Z,720
2018-12-02T08:06:51.502Z,840
2018-12-02T08:07:53.544Z,764
2018-12-02T08:08:55.619Z,736
2018-12-02T08:09:57.659Z,744
2018-12-02T08:10:59.687Z,820
2018-12-02T08:12:01.741Z,976
2018-12-02T08:13:04.040Z,872
2018-12-02T08:14:06.491Z,800
2018-12-02T08:15:08.920Z,776
2018-12-02T08:16:10.984Z,904
2018-12-02T08:17:13.013Z,712
2018-12-02T08:18:15.046Z,752
2018-12-02T08:19:17.103Z,936
2018-12-02T08:20:19.132Z,1048
2018-12-02T08:21:21.185Z,1048
2018-12-02T08:22:23.207Z,1220
2018-12-02T08:23:25.237Z,1364
2018-12-02T08:24:27.282Z,1568
2018-12-02T08:25:29.335Z,1764
2018-12-02T08:26:31.640Z,1908
2018-12-02T08:27:33.698Z,1972
2018-12-02T08:28:35.764Z,2124
2018-12-02T08:29:37.778Z,2184
2018-12-02T08:30:40.115Z,2208
2018-12-02T08:31:42.149Z,2168
2018-12-02T08:32:44.575Z,2016
2018-12-02T08:33:46.610Z,2164
2018-12-02T08:34:48.697Z,2012
2018-12-02T08:35:50.726Z,1964
2018-12-02T08:36:52.787Z,1840
2018-12-02T08:37:54.823Z,1876
2018-12-02T08:38:56.853Z,1760
2018-12-02T08:39:58.882Z,1460
2018-12-02T08:41:00.934Z,1704
2018-12-02T08:42:02.958Z,1684
2018-12-02T08:43:05.013Z,1652
2018-12-02T08:44:07.048Z,1436
2018-12-02T08:45:09.480Z,1368
2018-12-02T08:46:11.531Z,1568
2018-12-02T08:47:13.595Z,1376
2018-12-02T08:48:15.626Z,1216
2018-12-02T08:49:17.661Z,1504
2018-12-02T08:50:19.749Z,1440
2018-12-02T08:51:21.820Z,1464
2018-12-02T08:52:23.863Z,1784
2018-12-02T08:53:26.193Z,2016
2018-12-02T08:54:28.212Z,1988
2018-12-02T08:55:30.296Z,2136
2018-12-02T08:56:32.658Z,2444
2018-12-02T08:57:34.980Z,2608
2018-12-02T08:58:37.004Z,2776
2018-12-02T08:59:39.046Z,2860
2018-12-02T09:00:41.086Z,2772
2018-12-02T09:01:43.398Z,2876
2018-12-02T09:02:45.470Z,3036
2018-12-02T09:03:47.898Z,3124
2018-12-02T09:04:51.364Z,3184
2018-12-02T09:05:53.428Z,3356
2018-12-02T09:06:55.456Z,3276
2018-12-02T09:07:58.198Z,3628
2018-12-02T09:09:06.345Z,3796
2018-12-02T09:10:08.872Z,3692
2018-12-02T09:11:11.624Z,3760
2018-12-02T09:12:13.989Z,3900
2018-12-02T09:13:16.418Z,3912
2018-12-02T09:14:18.446Z,3984
2018-12-02T09:15:20.578Z,3936
2018-12-02T09:16:22.986Z,4016
2018-12-02T09:17:25.076Z,3928
2018-12-02T09:18:27.160Z,4020
2018-12-02T09:19:29.220Z,4036
2018-12-02T09:20:31.282Z,3852
2018-12-02T09:21:33.325Z,3588
2018-12-02T09:22:35.363Z,3468
2018-12-02T09:23:37.414Z,3144
2018-12-02T09:24:39.510Z,3076
2018-12-02T09:25:41.634Z,3152
2018-12-02T09:26:43.689Z,2944
2018-12-02T09:27:45.799Z,2820
2018-12-02T09:28:47.860Z,2836
2018-12-02T09:29:49.940Z,2648
2018-12-02T09:30:51.987Z,2684
2018-12-02T09:31:54.014Z,2784
2018-12-02T09:32:56.049Z,2752
2018-12-02T09:33:58.090Z,2668
2018-12-02T09:35:00.500Z,2676
2018-12-02T09:36:02.586Z,2836
2018-12-02T09:37:04.611Z,2848
2018-12-02T09:38:06.648Z,2908
2018-12-02T09:39:08.695Z,3052
2018-12-02T09:40:10.728Z,3072
2018-12-02T09:41:13.071Z,2952
2018-12-02T09:42:15.100Z,2864
2018-12-02T09:43:17.153Z,2748
2018-12-02T09:44:19.200Z,2696
2018-12-02T09:45:21.338Z,2624
2018-12-02T09:46:23.379Z,2576
2018-12-02T09:47:25.395Z,2488
2018-12-02T09:48:27.484Z,2452
2018-12-02T09:49:29.511Z,2372
2018-12-02T09:50:31.551Z,2332
2018-12-02T09:51:33.625Z,2312
2018-12-02T09:52:35.643Z,2292
2018-12-02T09:53:37.688Z,2228
2018-12-02T09:54:39.755Z,2220
2018-12-02T09:55:43.008Z,2360
2018-12-02T09:56:45.390Z,2372
2018-12-02T09:57:47.432Z,2632
2018-12-02T09:58:49.476Z,2628
2018-12-02T09:59:51.596Z,2864
2018-12-02T10:00:53.654Z,3324
2018-12-02T10:01:55.733Z,3588
2018-12-02T10:02:57.802Z,3592
2018-12-02T10:03:59.828Z,3776
2018-12-02T10:05:01.873Z,3708
2018-12-02T10:06:03.916Z,3968
2018-12-02T10:07:05.952Z,4176
2018-12-02T10:08:08.284Z,4256
2018-12-02T10:09:10.753Z,4544
2018-12-02T10:10:12.772Z,4808
2018-12-02T10:11:15.085Z,5136
2018-12-02T10:12:17.135Z,5136
2018-12-02T10:13:19.163Z,5592
2018-12-02T10:14:21.202Z,6072
2018-12-02T10:15:23.243Z,6200
2018-12-02T10:16:25.272Z,6492
2018-12-02T10:17:27.352Z,6268
2018-12-02T10:18:29.678Z,5748
2018-12-02T10:19:31.993Z,5564
2018-12-02T10:20:34.047Z,6264
2018-12-02T10:21:36.086Z,5704
2018-12-02T10:22:38.111Z,5552
2018-12-02T10:23:40.186Z,5480
2018-12-02T10:24:42.228Z,5160
2018-12-02T10:25:44.241Z,4224
2018-12-02T10:26:46.363Z,4740
2018-12-02T10:27:48.398Z,4900
2018-12-02T10:28:50.465Z,4324
2018-12-02T10:29:52.499Z,4388
2018-12-02T10:30:54.538Z,4196
2018-12-02T10:31:56.573Z,3920
2018-12-02T10:32:58.605Z,3064
2018-12-02T10:34:00.651Z,2752
2018-12-02T10:35:02.681Z,2720
2018-12-02T10:36:04.765Z,2724
2018-12-02T10:37:07.082Z,3140
2018-12-02T10:38:09.416Z,3020
2018-12-02T10:39:11.918Z,2840
2018-12-02T10:40:14.759Z,2708
2018-12-02T10:41:17.078Z,2796
2018-12-02T10:42:19.288Z,2948
2018-12-02T10:43:21.519Z,2484
2018-12-02T10:44:25.304Z,2344
2018-12-02T10:45:27.555Z,2544
2018-12-02T10:46:29.747Z,2800
2018-12-02T10:47:32.191Z,2780
2018-12-02T10:48:34.282Z,2748
2018-12-02T10:49:37.455Z,2848
2018-12-02T10:50:43.738Z,2864
2018-12-02T10:51:45.840Z,3028
2018-12-02T10:52:47.876Z,2964
2018-12-02T10:53:49.922Z,2932
2018-12-02T10:54:51.966Z,2796
2018-12-02T10:55:54.043Z,2752
2018-12-02T10:56:56.821Z,2788
2018-12-02T10:57:59.187Z,2952
2018-12-02T10:59:01.205Z,2896
2018-12-02T11:00:03.943Z,2668
2018-12-02T11:01:06.203Z,3068
2018-12-02T11:02:08.960Z,3044
2018-12-02T11:03:10.983Z,2864
2018-12-02T11:04:13.315Z,2884
2018-12-02T11:05:15.352Z,3152
2018-12-02T11:06:17.375Z,3032
2018-12-02T11:07:19.434Z,2912
2018-12-02T11:08:21.465Z,3032
2018-12-02T11:09:23.505Z,3144
2018-12-02T11:10:25.529Z,3200
2018-12-02T11:11:27.958Z,3280
2018-12-02T11:12:30.276Z,3616
2018-12-02T11:13:32.306Z,3444
2018-12-02T11:14:34.335Z,3448
2018-12-02T11:15:36.349Z,3096
2018-12-02T11:16:38.390Z,2956
2018-12-02T11:17:40.421Z,2988
2018-12-02T11:18:42.732Z,2736
2018-12-02T11:19:44.784Z,2744
2018-12-02T11:20:46.830Z,2940
2018-12-02T11:21:48.859Z,2768
2018-12-02T11:22:50.897Z,2552
2018-12-02T11:23:52.921Z,2580
2018-12-02T11:24:54.942Z,2684
2018-12-02T11:25:56.973Z,2688
2018-12-02T11:26:59.070Z,2528
2018-12-02T11:28:01.109Z,2548
2018-12-02T11:29:03.204Z,2692
2018-12-02T11:30:05.525Z,2844
2018-12-02T11:31:07.555Z,2704
2018-12-02T11:32:09.901Z,3100
2018-12-02T11:33:11.931Z,3332
2018-12-02T11:34:13.965Z,3496
2018-12-02T11:35:15.998Z,3260
2018-12-02T11:36:18.059Z,3456
2018-12-02T11:37:20.082Z,3300
2018-12-02T11:38:22.119Z,4284
2018-12-02T11:39:24.439Z,4772
2018-12-02T11:40:26.452Z,4336
2018-12-02T11:41:28.791Z,3692
2018-12-02T11:42:31.115Z,3712
2018-12-02T11:43:33.161Z,3624
2018-12-02T11:44:35.187Z,4272
2018-12-02T11:45:37.230Z,5180
2018-12-02T11:46:39.575Z,5648
2018-12-02T11:47:41.604Z,5884
2018-12-02T11:48:43.646Z,5972
2018-12-02T11:49:45.665Z,6252
2018-12-02T11:50:47.699Z,6004
2018-12-02T11:51:49.736Z,4776
2018-12-02T11:52:51.772Z,4228
2018-12-02T11:53:53.798Z,4848
2018-12-02T11:54:55.841Z,6024
2018-12-02T11:55:57.870Z,5804
2018-12-02T11:57:00.201Z,5320
2018-12-02T11:58:02.532Z,4596
2018-12-02T11:59:04.948Z,3984
2018-12-02T12:00:07.263Z,3692
2018-12-02T12:01:09.290Z,3576
2018-12-02T12:02:11.325Z,3848
2018-12-02T12:03:13.360Z,4040
2018-12-02T12:04:15.418Z,3996
2018-12-02T12:05:17.470Z,3916
2018-12-02T12:06:19.891Z,3864
2018-12-02T12:07:21.930Z,3608
2018-12-02T12:08:23.983Z,3540
2018-12-02T12:09:26.321Z,3184
2018-12-02T12:10:28.341Z,3012
2018-12-02T12:11:30.372Z,3128
2018-12-02T12:12:32.416Z,2976
2018-12-02T12:13:34.443Z,2820
2018-12-02T12:14:36.492Z,2800
2018-12-02T12:15:38.522Z,2896
2018-12-02T12:16:40.568Z,2852
2018-12-02T12:17:42.596Z,2868
2018-12-02T12:18:44.642Z,2680
2018-12-02T12:19:46.965Z,2876
2018-12-02T12:20:48.998Z,2928
2018-12-02T12:21:51.078Z,2820
2018-12-02T12:22:53.114Z,2876
2018-12-02T12:23:55.157Z,2844
2018-12-02T12:24:57.196Z,2856
2018-12-02T12:25:59.230Z,3188
2018-12-02T12:27:01.254Z,3108
2018-12-02T12:28:03.675Z,3080
2018-12-02T12:29:05.982Z,3092
2018-12-02T12:30:08.019Z,2860
2018-12-02T12:31:10.336Z,2848
2018-12-02T12:32:12.378Z,2756
2018-12-02T12:33:14.966Z,2504
2018-12-02T12:34:17.011Z,2656
2018-12-02T12:35:19.049Z,2356
2018-12-02T12:36:21.084Z,2212
2018-12-02T12:37:23.112Z,2060
2018-12-02T12:38:25.154Z,1888
2018-12-02T12:39:27.185Z,2048
2018-12-02T12:40:29.220Z,1792
2018-12-02T12:41:31.254Z,1796
2018-12-02T12:42:33.301Z,1612
2018-12-02T12:43:35.327Z,1444
2018-12-02T12:44:37.364Z,1376
2018-12-02T12:45:39.417Z,1276
2018-12-02T12:46:41.435Z,1200
2018-12-02T12:47:43.476Z,1220
2018-12-02T12:48:45.790Z,1136
2018-12-02T12:49:48.392Z,1128
2018-12-02T12:50:50.421Z,1148
2018-12-02T12:51:52.468Z,1288
2018-12-02T12:52:54.515Z,1160
2018-12-02T12:53:56.600Z,1088
2018-12-02T12:54:58.647Z,1160
2018-12-02T12:56:00.669Z,1056
2018-12-02T12:57:02.700Z,1160
2018-12-02T12:58:04.737Z,1088
2018-12-02T12:59:06.781Z,968
2018-12-02T13:00:08.805Z,980
2018-12-02T13:01:10.863Z,984
2018-12-02T13:02:13.174Z,960
2018-12-02T13:03:15.204Z,1064
2018-12-02T13:04:17.256Z,980
2018-12-02T13:05:19.290Z,1048
2018-12-02T13:06:21.322Z,992
2018-12-02T13:07:23.370Z,960
2018-12-02T13:08:25.406Z,940
2018-12-02T13:09:27.445Z,928
2018-12-02T13:10:29.525Z,1028
2018-12-02T13:11:31.821Z,1008
2018-12-02T13:12:34.155Z,964
2018-12-02T13:13:36.468Z,884
2018-12-02T13:14:38.531Z,888
2018-12-02T13:15:40.566Z,940
2018-12-02T13:16:42.980Z,928
2018-12-02T13:17:45.011Z,880
2018-12-02T13:18:47.335Z,832
2018-12-02T13:19:49.360Z,980
2018-12-02T13:20:51.406Z,952
2018-12-02T13:21:53.447Z,932
2018-12-02T13:22:55.483Z,936
2018-12-02T13:23:57.901Z,940
2018-12-02T13:24:59.928Z,876
2018-12-02T13:26:01.965Z,876
2018-12-02T13:27:04.279Z,908
2018-12-02T13:28:06.324Z,924
2018-12-02T13:29:08.352Z,952
2018-12-02T13:30:10.433Z,900
2018-12-02T13:31:12.481Z,908
2018-12-02T13:32:14.792Z,860
2018-12-02T13:33:16.827Z,940
2018-12-02T13:34:19.252Z,968
2018-12-02T13:35:22.127Z,892
2018-12-02T13:36:27.880Z,892
2018-12-02T13:37:30.413Z,836
2018-12-02T13:38:32.450Z,860
2018-12-02T13:39:34.477Z,812
2018-12-02T13:40:36.520Z,1004
2018-12-02T13:41:38.542Z,968
2018-12-02T13:42:40.961Z,924
2018-12-02T13:43:43.007Z,820
2018-12-02T13:44:45.022Z,684
2018-12-02T13:45:47.059Z,784
2018-12-02T13:46:49.375Z,908
2018-12-02T13:47:51.424Z,920
2018-12-02T13:48:53.471Z,1036
2018-12-02T13:49:55.516Z,1064
2018-12-02T13:50:57.544Z,1052
2018-12-02T13:51:59.574Z,1020
2018-12-02T13:53:01.618Z,972
2018-12-02T13:54:03.639Z,968
2018-12-02T13:55:05.674Z,1280
2018-12-02T13:56:07.707Z,1216
2018-12-02T13:57:09.766Z,1060
2018-12-02T13:58:11.795Z,1012
2018-12-02T13:59:14.214Z,896
2018-12-02T14:00:16.534Z,796
2018-12-02T14:01:18.836Z,728
2018-12-02T14:02:20.976Z,912
2018-12-02T14:03:23.643Z,916
2018-12-02T14:04:25.669Z,936
2018-12-02T14:05:28.266Z,780
2018-12-02T14:06:30.583Z,732
2018-12-02T14:07:32.630Z,752
2018-12-02T14:08:35.219Z,740
2018-12-02T14:09:37.251Z,688
2018-12-02T14:10:39.280Z,608
2018-12-02T14:11:41.318Z,608
2018-12-02T14:12:43.363Z,552
2018-12-02T14:13:45.673Z,556
2018-12-02T14:14:48.297Z,552
2018-12-02T14:15:50.728Z,528
2018-12-02T14:16:52.752Z,512
2018-12-02T14:17:54.795Z,544
2018-12-02T14:18:56.826Z,568
2018-12-02T14:19:59.156Z,672
2018-12-02T14:21:01.180Z,612
2018-12-02T14:22:03.223Z,560
2018-12-02T14:23:05.252Z,544
2018-12-02T14:24:07.297Z,512
2018-12-02T14:25:09.403Z,612
2018-12-02T14:26:11.428Z,664
2018-12-02T14:27:13.858Z,656
2018-12-02T14:28:15.888Z,620
2018-12-02T14:29:17.926Z,592
2018-12-02T14:30:19.949Z,584
2018-12-02T14:31:22.005Z,556
2018-12-02T14:32:24.318Z,528
2018-12-02T14:33:26.366Z,520
2018-12-02T14:34:28.388Z,488